sensor_id;sensor_type;location;lat;lon;timestamp;pressure;altitude;pressure_sealevel;temperature;humidity
48872;BME280;36154;51.674;7.824;2024-02-28T00:02:25;101120.16;;;20.10;47.17
48872;BME280;36154;51.674;7.824;2024-02-28T00:04:50;101124.47;;;20.10;47.00
48872;BME280;36154;51.674;7.824;2024-02-28T00:07:15;101129.66;;;20.10;46.88
48872;BME280;36154;51.674;7.824;2024-02-28T00:09:40;101129.66;;;20.10;46.99
48872;BME280;36154;51.674;7.824;2024-02-28T00:12:06;101129.69;;;20.08;46.84
48872;BME280;36154;51.674;7.824;2024-02-28T00:14:31;101133.13;;;20.09;46.95
48872;BME280;36154;51.674;7.824;2024-02-28T00:16:56;101138.28;;;20.09;47.01
48872;BME280;36154;51.674;7.824;2024-02-28T00:19:21;101130.53;;;20.09;46.80
48872;BME280;36154;51.674;7.824;2024-02-28T00:21:48;101140.03;;;20.08;46.87
48872;BME280;36154;51.674;7.824;2024-02-28T00:24:13;101139.16;;;20.08;46.90
48872;BME280;36154;51.674;7.824;2024-02-28T00:26:42;101138.28;;;20.09;46.86
48872;BME280;36154;51.674;7.824;2024-02-28T00:29:08;101147.78;;;20.08;46.94
48872;BME280;36154;51.674;7.824;2024-02-28T00:31:33;101151.22;;;20.09;46.95
48872;BME280;36154;51.674;7.824;2024-02-28T00:33:59;101152.09;;;20.08;46.92
48872;BME280;36154;51.674;7.824;2024-02-28T00:36:24;101153.03;;;20.05;47.14
48872;BME280;36154;51.674;7.824;2024-02-28T00:38:49;101162.44;;;20.08;46.98
48872;BME280;36154;51.674;7.824;2024-02-28T00:41:14;101165.94;;;20.07;47.08
48872;BME280;36154;51.674;7.824;2024-02-28T00:43:40;101166.78;;;20.07;47.12
48872;BME280;36154;51.674;7.824;2024-02-28T00:46:05;101165.94;;;20.07;47.18
48872;BME280;36154;51.674;7.824;2024-02-28T00:48:36;101171.09;;;20.07;47.04
48872;BME280;36154;51.674;7.824;2024-02-28T00:51:01;101170.22;;;20.06;47.03
48872;BME280;36154;51.674;7.824;2024-02-28T00:53:27;101174.56;;;20.06;46.90
48872;BME280;36154;51.674;7.824;2024-02-28T00:55:52;101179.72;;;20.06;47.09
48872;BME280;36154;51.674;7.824;2024-02-28T00:58:18;101175.47;;;20.03;47.04
48872;BME280;36154;51.674;7.824;2024-02-28T01:00:43;101170.28;;;20.05;47.03
48872;BME280;36154;51.674;7.824;2024-02-28T01:03:08;101182.31;;;20.06;47.05
48872;BME280;36154;51.674;7.824;2024-02-28T01:05:36;101178.91;;;20.04;46.96
48872;BME280;36154;51.674;7.824;2024-02-28T01:08:01;101178.03;;;20.05;47.12
48872;BME280;36154;51.674;7.824;2024-02-28T01:10:26;101168.56;;;20.04;46.58
48872;BME280;36154;51.674;7.824;2024-02-28T01:12:51;101168.56;;;20.04;47.02
48872;BME280;36154;51.674;7.824;2024-02-28T01:15:17;101160.81;;;20.04;46.99
48872;BME280;36154;51.674;7.824;2024-02-28T01:17:42;101160.81;;;20.04;46.89
48872;BME280;36154;51.674;7.824;2024-02-28T01:20:07;101147.88;;;20.04;47.00
48872;BME280;36154;51.674;7.824;2024-02-28T01:22:34;101143.56;;;20.03;47.15
48872;BME280;36154;51.674;7.824;2024-02-28T01:24:59;101151.31;;;20.03;47.12
48872;BME280;36154;51.674;7.824;2024-02-28T01:27:24;101151.31;;;20.03;47.11
48872;BME280;36154;51.674;7.824;2024-02-28T01:29:49;101153.91;;;20.03;46.98
48872;BME280;36154;51.674;7.824;2024-02-28T01:32:15;101148.75;;;20.03;46.92
48872;BME280;36154;51.674;7.824;2024-02-28T01:34:40;101148.75;;;20.03;46.98
48872;BME280;36154;51.674;7.824;2024-02-28T01:37:05;101145.31;;;20.02;47.09
48872;BME280;36154;51.674;7.824;2024-02-28T01:39:30;101157.41;;;20.02;47.16
48872;BME280;36154;51.674;7.824;2024-02-28T01:41:56;101157.41;;;20.02;46.92
48872;BME280;36154;51.674;7.824;2024-02-28T01:44:23;101149.63;;;20.02;47.08
48872;BME280;36154;51.674;7.824;2024-02-28T01:46:48;101154.81;;;20.02;46.99
48872;BME280;36154;51.674;7.824;2024-02-28T01:49:15;101156.53;;;20.01;47.13
48872;BME280;36154;51.674;7.824;2024-02-28T01:51:41;101157.41;;;20.02;46.97
48872;BME280;36154;51.674;7.824;2024-02-28T01:54:06;101147.91;;;20.01;47.16
48872;BME280;36154;51.674;7.824;2024-02-28T01:56:32;101135.00;;;20.01;46.95
48872;BME280;36154;51.674;7.824;2024-02-28T01:58:59;101129.81;;;20.01;47.14
48872;BME280;36154;51.674;7.824;2024-02-28T02:01:26;101146.22;;;20.00;47.15
48872;BME280;36154;51.674;7.824;2024-02-28T02:03:51;101149.66;;;20.00;47.17
48872;BME280;36154;51.674;7.824;2024-02-28T02:06:16;101148.78;;;20.00;46.99
48872;BME280;36154;51.674;7.824;2024-02-28T02:08:42;101160.84;;;20.01;47.07
48872;BME280;36154;51.674;7.824;2024-02-28T02:11:08;101148.78;;;20.00;46.88
48872;BME280;36154;51.674;7.824;2024-02-28T02:13:33;101148.78;;;20.00;47.07
48872;BME280;36154;51.674;7.824;2024-02-28T02:16:00;101144.53;;;19.99;47.07
48872;BME280;36154;51.674;7.824;2024-02-28T02:18:26;101149.69;;;19.99;46.88
48872;BME280;36154;51.674;7.824;2024-02-28T02:20:57;101157.44;;;19.99;47.18
48872;BME280;36154;51.674;7.824;2024-02-28T02:23:24;101157.44;;;19.99;46.99
48872;BME280;36154;51.674;7.824;2024-02-28T02:25:49;101157.44;;;19.99;47.23
48872;BME280;36154;51.674;7.824;2024-02-28T02:28:14;101162.63;;;19.99;47.08
48872;BME280;36154;51.674;7.824;2024-02-28T02:30:40;101155.72;;;19.98;47.01
48872;BME280;36154;51.674;7.824;2024-02-28T02:33:07;101158.31;;;19.98;47.11
48872;BME280;36154;51.674;7.824;2024-02-28T02:35:33;101163.50;;;19.98;47.03
48872;BME280;36154;51.674;7.824;2024-02-28T02:37:59;101162.63;;;19.99;46.99
48872;BME280;36154;51.674;7.824;2024-02-28T02:40:24;101160.91;;;19.98;47.16
48872;BME280;36154;51.674;7.824;2024-02-28T02:42:49;101155.72;;;19.98;46.97
48872;BME280;36154;51.674;7.824;2024-02-28T02:45:15;101166.06;;;19.98;46.99
48872;BME280;36154;51.674;7.824;2024-02-28T02:47:41;101165.22;;;19.97;46.92
48872;BME280;36154;51.674;7.824;2024-02-28T02:50:09;101159.22;;;19.97;46.94
48872;BME280;36154;51.674;7.824;2024-02-28T02:52:34;101160.91;;;19.98;47.31
48872;BME280;36154;51.674;7.824;2024-02-28T02:54:59;101163.50;;;19.98;47.04
48872;BME280;36154;51.674;7.824;2024-02-28T02:57:25;101164.38;;;19.97;47.09
48872;BME280;36154;51.674;7.824;2024-02-28T02:59:50;101159.22;;;19.97;46.78
48872;BME280;36154;51.674;7.824;2024-02-28T03:02:15;101160.09;;;19.96;46.97
48872;BME280;36154;51.674;7.824;2024-02-28T03:04:40;101164.38;;;19.97;46.92
48872;BME280;36154;51.674;7.824;2024-02-28T03:07:06;101165.25;;;19.96;46.92
48872;BME280;36154;51.674;7.824;2024-02-28T03:09:31;101165.25;;;19.96;46.86
48872;BME280;36154;51.674;7.824;2024-02-28T03:11:56;101162.69;;;19.96;46.95
48872;BME280;36154;51.674;7.824;2024-02-28T03:14:21;101178.19;;;19.96;47.06
48872;BME280;36154;51.674;7.824;2024-02-28T03:16:50;101176.47;;;19.94;47.07
48872;BME280;36154;51.674;7.824;2024-02-28T03:19:16;101172.19;;;19.95;47.09
48872;BME280;36154;51.674;7.824;2024-02-28T03:21:41;101178.19;;;19.96;47.10
48872;BME280;36154;51.674;7.824;2024-02-28T03:24:06;101178.22;;;19.94;47.04
48872;BME280;36154;51.674;7.824;2024-02-28T03:26:32;101178.22;;;19.94;46.90
48872;BME280;36154;51.674;7.824;2024-02-28T03:28:57;101179.97;;;19.93;46.95
48872;BME280;36154;51.674;7.824;2024-02-28T03:31:23;101181.66;;;19.94;46.97
48872;BME280;36154;51.674;7.824;2024-02-28T03:33:48;101186.81;;;19.94;47.05
48872;BME280;36154;51.674;7.824;2024-02-28T03:36:13;101183.41;;;19.92;47.09
48872;BME280;36154;51.674;7.824;2024-02-28T03:38:38;101188.56;;;19.94;47.22
48872;BME280;36154;51.674;7.824;2024-02-28T03:41:05;101188.56;;;19.94;46.88
48872;BME280;36154;51.674;7.824;2024-02-28T03:43:30;101194.59;;;19.93;47.05
48872;BME280;36154;51.674;7.824;2024-02-28T03:45:56;101192.00;;;19.93;47.21
48872;BME280;36154;51.674;7.824;2024-02-28T03:48:21;101183.41;;;19.92;47.03
48872;BME280;36154;51.674;7.824;2024-02-28T03:50:46;101192.00;;;19.93;46.81
48872;BME280;36154;51.674;7.824;2024-02-28T03:53:12;101193.75;;;19.92;47.05
48872;BME280;36154;51.674;7.824;2024-02-28T03:55:37;101195.47;;;19.93;46.98
48872;BME280;36154;51.674;7.824;2024-02-28T03:58:03;101195.47;;;19.93;46.92
48872;BME280;36154;51.674;7.824;2024-02-28T04:00:28;101204.09;;;19.92;47.13
48872;BME280;36154;51.674;7.824;2024-02-28T04:02:53;101208.44;;;19.92;47.12
48872;BME280;36154;51.674;7.824;2024-02-28T04:05:19;101207.59;;;19.91;46.86
48872;BME280;36154;51.674;7.824;2024-02-28T04:07:44;101208.44;;;19.92;46.79
48872;BME280;36154;51.674;7.824;2024-02-28T04:10:09;101206.72;;;19.91;47.01
48872;BME280;36154;51.674;7.824;2024-02-28T04:12:36;101198.94;;;19.91;46.99
48872;BME280;36154;51.674;7.824;2024-02-28T04:15:01;101206.72;;;19.91;47.00
48872;BME280;36154;51.674;7.824;2024-02-28T04:17:26;101207.59;;;19.91;46.98
48872;BME280;36154;51.674;7.824;2024-02-28T04:19:52;101207.59;;;19.91;46.92
48872;BME280;36154;51.674;7.824;2024-02-28T04:22:17;101206.72;;;19.91;46.96
48872;BME280;36154;51.674;7.824;2024-02-28T04:24:42;101211.88;;;19.91;46.84
48872;BME280;36154;51.674;7.824;2024-02-28T04:27:07;101204.16;;;19.89;46.90
48872;BME280;36154;51.674;7.824;2024-02-28T04:29:35;101198.94;;;19.91;46.96
48872;BME280;36154;51.674;7.824;2024-02-28T04:32:00;101210.19;;;19.90;46.95
48872;BME280;36154;51.674;7.824;2024-02-28T04:34:25;101215.41;;;19.88;46.90
48872;BME280;36154;51.674;7.824;2024-02-28T04:36:51;101214.50;;;19.89;46.98
48872;BME280;36154;51.674;7.824;2024-02-28T04:39:16;101217.97;;;19.88;46.92
48872;BME280;36154;51.674;7.824;2024-02-28T04:41:41;101216.25;;;19.87;46.79
48872;BME280;36154;51.674;7.824;2024-02-28T04:44:06;101219.66;;;19.89;46.75
48872;BME280;36154;51.674;7.824;2024-02-28T04:46:34;101228.31;;;19.88;47.00
48872;BME280;36154;51.674;7.824;2024-02-28T04:48:59;101235.19;;;19.89;46.97
48872;BME280;36154;51.674;7.824;2024-02-28T04:51:25;101230.03;;;19.88;46.91
48872;BME280;36154;51.674;7.824;2024-02-28T04:53:50;101228.31;;;19.88;46.83
48872;BME280;36154;51.674;7.824;2024-02-28T04:56:15;101243.84;;;19.88;46.80
48872;BME280;36154;51.674;7.824;2024-02-28T04:58:40;101246.41;;;19.90;46.69
48872;BME280;36154;51.674;7.824;2024-02-28T05:01:06;101243.84;;;19.88;46.90
48872;BME280;36154;51.674;7.824;2024-02-28T05:03:31;101249.84;;;19.89;46.93
48872;BME280;36154;51.674;7.824;2024-02-28T05:05:56;101252.41;;;19.90;46.99
48872;BME280;36154;51.674;7.824;2024-02-28T05:08:21;101250.69;;;19.89;47.08
48872;BME280;36154;51.674;7.824;2024-02-28T05:10:47;101255.03;;;19.89;47.25
48872;BME280;36154;51.674;7.824;2024-02-28T05:13:12;101260.19;;;19.89;47.43
48872;BME280;36154;51.674;7.824;2024-02-28T05:15:37;101258.47;;;19.88;47.55
48872;BME280;36154;51.674;7.824;2024-02-28T05:18:03;101261.03;;;19.89;47.36
48872;BME280;36154;51.674;7.824;2024-02-28T05:20:28;101269.69;;;19.88;47.61
48872;BME280;36154;51.674;7.824;2024-02-28T05:22:53;101267.94;;;19.90;47.58
48872;BME280;36154;51.674;7.824;2024-02-28T05:25:19;101273.09;;;19.90;47.63
48872;BME280;36154;51.674;7.824;2024-02-28T05:27:44;101270.53;;;19.90;47.83
48872;BME280;36154;51.674;7.824;2024-02-28T05:30:10;101278.28;;;19.90;47.81
48872;BME280;36154;51.674;7.824;2024-02-28T05:32:35;101286.88;;;19.91;47.89
48872;BME280;36154;51.674;7.824;2024-02-28T05:35:00;101288.63;;;19.90;48.00
48872;BME280;36154;51.674;7.824;2024-02-28T05:37:26;101285.16;;;19.91;48.24
48872;BME280;36154;51.674;7.824;2024-02-28T05:39:51;101290.34;;;19.91;48.08
48872;BME280;36154;51.674;7.824;2024-02-28T05:42:17;101285.16;;;19.91;47.93
48872;BME280;36154;51.674;7.824;2024-02-28T05:44:48;101286.00;;;19.92;48.08
48872;BME280;36154;51.674;7.824;2024-02-28T05:47:13;101283.44;;;19.90;48.11
48872;BME280;36154;51.674;7.824;2024-02-28T05:49:38;101285.16;;;19.91;48.05
48872;BME280;36154;51.674;7.824;2024-02-28T05:52:04;101288.63;;;19.90;48.07
48872;BME280;36154;51.674;7.824;2024-02-28T05:54:30;101290.34;;;19.91;48.08
48872;BME280;36154;51.674;7.824;2024-02-28T05:56:56;101288.63;;;19.90;47.76
48872;BME280;36154;51.674;7.824;2024-02-28T05:59:21;101285.16;;;19.91;47.81
48872;BME280;36154;51.674;7.824;2024-02-28T06:01:46;101288.63;;;19.90;47.88
48872;BME280;36154;51.674;7.824;2024-02-28T06:04:11;101293.78;;;19.90;47.66
48872;BME280;36154;51.674;7.824;2024-02-28T06:06:38;101304.13;;;19.90;47.85
48872;BME280;36154;51.674;7.824;2024-02-28T06:09:03;101304.16;;;19.89;47.78
48872;BME280;36154;51.674;7.824;2024-02-28T06:11:28;101306.72;;;19.90;47.71
48872;BME280;36154;51.674;7.824;2024-02-28T06:13:54;101310.19;;;19.89;47.76
48872;BME280;36154;51.674;7.824;2024-02-28T06:16:19;101315.38;;;19.88;47.75
48872;BME280;36154;51.674;7.824;2024-02-28T06:18:44;101314.50;;;19.89;47.71
48872;BME280;36154;51.674;7.824;2024-02-28T06:21:10;101317.94;;;19.89;47.75
48872;BME280;36154;51.674;7.824;2024-02-28T06:23:35;101321.41;;;19.88;47.92
48872;BME280;36154;51.674;7.824;2024-02-28T06:26:00;101323.09;;;19.89;47.94
48872;BME280;36154;51.674;7.824;2024-02-28T06:28:26;101326.56;;;19.90;47.96
48872;BME280;36154;51.674;7.824;2024-02-28T06:30:51;101332.59;;;19.89;48.17
48872;BME280;36154;51.674;7.824;2024-02-28T06:33:17;101342.06;;;19.91;48.37
48872;BME280;36154;51.674;7.824;2024-02-28T06:35:42;101337.75;;;19.90;48.12
48872;BME280;36154;51.674;7.824;2024-02-28T06:38:07;101339.50;;;19.90;48.31
48872;BME280;36154;51.674;7.824;2024-02-28T06:40:33;101339.50;;;19.90;48.38
48872;BME280;36154;51.674;7.824;2024-02-28T06:42:59;101348.13;;;19.89;48.30
48872;BME280;36154;51.674;7.824;2024-02-28T06:45:25;101346.38;;;19.89;48.24
48872;BME280;36154;51.674;7.824;2024-02-28T06:47:50;101348.97;;;19.89;48.14
48872;BME280;36154;51.674;7.824;2024-02-28T06:50:16;101347.31;;;19.87;48.17
48872;BME280;36154;51.674;7.824;2024-02-28T06:52:42;101359.34;;;19.88;48.08
48872;BME280;36154;51.674;7.824;2024-02-28T06:55:07;101352.47;;;19.88;48.07
48872;BME280;36154;51.674;7.824;2024-02-28T06:57:38;101349.88;;;19.88;48.03
48872;BME280;36154;51.674;7.824;2024-02-28T07:00:08;101355.91;;;19.87;48.02
48872;BME280;36154;51.674;7.824;2024-02-28T07:02:35;101355.91;;;19.87;48.14
48872;BME280;36154;51.674;7.824;2024-02-28T07:05:01;101354.19;;;19.86;48.09
48872;BME280;36154;51.674;7.824;2024-02-28T07:07:27;101362.81;;;19.87;47.95
48872;BME280;36154;51.674;7.824;2024-02-28T07:09:52;101358.50;;;19.87;47.97
48872;BME280;36154;51.674;7.824;2024-02-28T07:12:18;101363.66;;;19.87;47.96
48872;BME280;36154;51.674;7.824;2024-02-28T07:14:43;101350.72;;;19.87;48.07
48872;BME280;36154;51.674;7.824;2024-02-28T07:17:08;101345.56;;;19.87;48.07
48872;BME280;36154;51.674;7.824;2024-02-28T07:19:35;101335.22;;;19.87;47.72
48872;BME280;36154;51.674;7.824;2024-02-28T07:22:01;101342.13;;;19.88;47.78
48872;BME280;36154;51.674;7.824;2024-02-28T07:24:26;101346.41;;;19.88;47.84
48872;BME280;36154;51.674;7.824;2024-02-28T07:26:51;101350.72;;;19.87;47.80
48872;BME280;36154;51.674;7.824;2024-02-28T07:29:17;101347.28;;;19.88;47.99
48872;BME280;36154;51.674;7.824;2024-02-28T07:31:42;101345.56;;;19.87;47.73
48872;BME280;36154;51.674;7.824;2024-02-28T07:34:07;101350.72;;;19.87;47.89
48872;BME280;36154;51.674;7.824;2024-02-28T07:36:33;101349.88;;;19.88;47.88
48872;BME280;36154;51.674;7.824;2024-02-28T07:38:59;101346.41;;;19.88;47.54
48872;BME280;36154;51.674;7.824;2024-02-28T07:41:24;101350.72;;;19.89;47.61
48872;BME280;36154;51.674;7.824;2024-02-28T07:43:49;101361.91;;;19.88;47.83
48872;BME280;36154;51.674;7.824;2024-02-28T07:46:15;101367.97;;;19.88;47.72
48872;BME280;36154;51.674;7.824;2024-02-28T07:48:40;101361.06;;;19.87;47.71
48872;BME280;36154;51.674;7.824;2024-02-28T07:51:06;101356.75;;;19.88;47.67
48872;BME280;36154;51.674;7.824;2024-02-28T07:53:32;101366.25;;;19.87;47.68
48872;BME280;36154;51.674;7.824;2024-02-28T07:55:57;101367.13;;;19.86;47.77
48872;BME280;36154;51.674;7.824;2024-02-28T07:58:23;101365.41;;;19.87;47.69
48872;BME280;36154;51.674;7.824;2024-02-28T08:00:49;101366.25;;;19.87;47.77
48872;BME280;36154;51.674;7.824;2024-02-28T08:03:14;101371.41;;;19.87;47.66
48872;BME280;36154;51.674;7.824;2024-02-28T08:05:39;101378.31;;;19.88;47.61
48872;BME280;36154;51.674;7.824;2024-02-28T08:08:06;101376.59;;;19.87;47.72
48872;BME280;36154;51.674;7.824;2024-02-28T08:10:31;101371.41;;;19.87;47.68
48872;BME280;36154;51.674;7.824;2024-02-28T08:12:57;101360.22;;;19.87;47.70
48872;BME280;36154;51.674;7.824;2024-02-28T08:15:22;101365.41;;;19.87;47.65
48872;BME280;36154;51.674;7.824;2024-02-28T08:17:48;101368.00;;;19.87;47.68
48872;BME280;36154;51.674;7.824;2024-02-28T08:20:13;101369.69;;;19.86;47.73
48872;BME280;36154;51.674;7.824;2024-02-28T08:22:38;101380.03;;;19.86;47.63
48872;BME280;36154;51.674;7.824;2024-02-28T08:25:04;101389.53;;;19.87;47.61
48872;BME280;36154;51.674;7.824;2024-02-28T08:27:30;101396.44;;;19.87;47.70
48872;BME280;36154;51.674;7.824;2024-02-28T08:29:55;101395.56;;;19.86;47.61
48872;BME280;36154;51.674;7.824;2024-02-28T08:32:20;101401.63;;;19.85;47.69
48872;BME280;36154;51.674;7.824;2024-02-28T08:34:46;101408.50;;;19.86;47.57
48872;BME280;36154;51.674;7.824;2024-02-28T08:37:12;101412.81;;;19.87;47.63
48872;BME280;36154;51.674;7.824;2024-02-28T08:39:37;101417.13;;;19.87;47.75
48872;BME280;36154;51.674;7.824;2024-02-28T08:42:03;101417.97;;;19.87;47.76
48872;BME280;36154;51.674;7.824;2024-02-28T08:44:28;101412.81;;;19.87;47.57
48872;BME280;36154;51.674;7.824;2024-02-28T08:46:53;101423.16;;;19.87;47.69
48872;BME280;36154;51.674;7.824;2024-02-28T08:49:18;101414.53;;;19.87;47.69
48872;BME280;36154;51.674;7.824;2024-02-28T08:51:44;101409.38;;;19.87;47.51
48872;BME280;36154;51.674;7.824;2024-02-28T08:54:09;101417.13;;;19.87;47.70
48872;BME280;36154;51.674;7.824;2024-02-28T08:56:35;101411.06;;;19.86;47.68
48872;BME280;36154;51.674;7.824;2024-02-28T08:59:00;101413.66;;;19.86;47.68
48872;BME280;36154;51.674;7.824;2024-02-28T09:01:25;101421.41;;;19.86;47.71
48872;BME280;36154;51.674;7.824;2024-02-28T09:03:50;101428.31;;;19.87;47.58
48872;BME280;36154;51.674;7.824;2024-02-28T09:06:16;101422.31;;;19.87;47.69
48872;BME280;36154;51.674;7.824;2024-02-28T09:08:41;101426.59;;;19.86;47.60
48872;BME280;36154;51.674;7.824;2024-02-28T09:11:06;101421.41;;;19.86;47.50
48872;BME280;36154;51.674;7.824;2024-02-28T09:13:32;101432.66;;;19.87;47.72
48872;BME280;36154;51.674;7.824;2024-02-28T09:15:57;101422.31;;;19.87;47.48
48872;BME280;36154;51.674;7.824;2024-02-28T09:18:23;101418.84;;;19.86;47.61
48872;BME280;36154;51.674;7.824;2024-02-28T09:20:48;101426.59;;;19.86;47.45
48872;BME280;36154;51.674;7.824;2024-02-28T09:23:13;101416.25;;;19.86;47.56
48872;BME280;36154;51.674;7.824;2024-02-28T09:25:39;101412.81;;;19.87;47.54
48872;BME280;36154;51.674;7.824;2024-02-28T09:28:05;101422.31;;;19.87;47.48
48872;BME280;36154;51.674;7.824;2024-02-28T09:30:30;101415.38;;;19.87;47.55
48872;BME280;36154;51.674;7.824;2024-02-28T09:32:56;101420.56;;;19.86;47.62
48872;BME280;36154;51.674;7.824;2024-02-28T09:35:21;101420.56;;;19.87;47.35
48872;BME280;36154;51.674;7.824;2024-02-28T09:37:47;101424.00;;;19.86;47.46
48872;BME280;36154;51.674;7.824;2024-02-28T09:40:12;101426.59;;;19.86;47.48
48872;BME280;36154;51.674;7.824;2024-02-28T09:42:38;101428.31;;;19.87;47.55
48872;BME280;36154;51.674;7.824;2024-02-28T09:45:03;101436.06;;;19.87;47.38
48872;BME280;36154;51.674;7.824;2024-02-28T09:47:29;101438.66;;;19.87;47.41
48872;BME280;36154;51.674;7.824;2024-02-28T09:49:57;101428.31;;;19.87;47.40
48872;BME280;36154;51.674;7.824;2024-02-28T09:52:26;101430.03;;;19.88;47.39
48872;BME280;36154;51.674;7.824;2024-02-28T09:54:52;101424.88;;;19.88;47.42
48872;BME280;36154;51.674;7.824;2024-02-28T09:57:18;101430.91;;;19.87;47.40
48872;BME280;36154;51.674;7.824;2024-02-28T09:59:43;101425.72;;;19.87;47.32
48872;BME280;36154;51.674;7.824;2024-02-28T10:02:10;101430.03;;;19.88;47.49
48872;BME280;36154;51.674;7.824;2024-02-28T10:04:37;101430.03;;;19.88;47.48
48872;BME280;36154;51.674;7.824;2024-02-28T10:07:15;101421.41;;;19.88;47.44
48872;BME280;36154;51.674;7.824;2024-02-28T10:09:43;101420.56;;;19.87;47.40
48872;BME280;36154;51.674;7.824;2024-02-28T10:12:09;101426.56;;;19.89;47.25
48872;BME280;36154;51.674;7.824;2024-02-28T10:14:34;101423.09;;;19.90;47.38
48872;BME280;36154;51.674;7.824;2024-02-28T10:16:59;101426.56;;;19.89;47.21
48872;BME280;36154;51.674;7.824;2024-02-28T10:19:25;101424.84;;;19.90;47.29
48872;BME280;36154;51.674;7.824;2024-02-28T10:21:50;101418.78;;;19.91;47.29
48872;BME280;36154;51.674;7.824;2024-02-28T10:24:15;101421.38;;;19.89;47.23
48872;BME280;36154;51.674;7.824;2024-02-28T10:26:44;101418.78;;;19.91;47.19
48872;BME280;36154;51.674;7.824;2024-02-28T10:29:10;101419.66;;;19.91;47.40
48872;BME280;36154;51.674;7.824;2024-02-28T10:31:37;101427.41;;;19.91;47.27
48872;BME280;36154;51.674;7.824;2024-02-28T10:34:03;101428.25;;;19.92;47.25
48872;BME280;36154;51.674;7.824;2024-02-28T10:36:32;101425.69;;;19.92;47.31
48872;BME280;36154;51.674;7.824;2024-02-28T10:38:58;101421.34;;;19.92;47.16
48872;BME280;36154;51.674;7.824;2024-02-28T10:41:26;101427.38;;;19.93;47.41
48872;BME280;36154;51.674;7.824;2024-02-28T10:43:53;101422.19;;;19.93;47.05
48872;BME280;36154;51.674;7.824;2024-02-28T10:46:20;101429.94;;;19.94;47.33
48872;BME280;36154;51.674;7.824;2024-02-28T10:48:46;101432.53;;;19.94;47.14
48872;BME280;36154;51.674;7.824;2024-02-28T10:51:15;101429.94;;;19.94;47.32
48872;BME280;36154;51.674;7.824;2024-02-28T10:53:41;101435.09;;;19.94;47.40
48872;BME280;36154;51.674;7.824;2024-02-28T10:56:11;101442.00;;;19.96;47.21
48872;BME280;36154;51.674;7.824;2024-02-28T10:58:37;101441.16;;;19.95;47.18
48872;BME280;36154;51.674;7.824;2024-02-28T11:01:07;101436.84;;;19.96;47.29
48872;BME280;36154;51.674;7.824;2024-02-28T11:03:33;101440.25;;;19.96;47.28
48872;BME280;36154;51.674;7.824;2024-02-28T11:05:59;101435.97;;;19.97;47.33
48872;BME280;36154;51.674;7.824;2024-02-28T11:08:26;101435.06;;;19.98;47.20
48872;BME280;36154;51.674;7.824;2024-02-28T11:11:01;101429.91;;;19.98;47.31
48872;BME280;36154;51.674;7.824;2024-02-28T11:13:27;101431.63;;;19.99;47.18
48872;BME280;36154;51.674;7.824;2024-02-28T11:15:54;101428.13;;;20.00;47.26
48872;BME280;36154;51.674;7.824;2024-02-28T11:18:22;101424.69;;;20.01;47.12
48872;BME280;36154;51.674;7.824;2024-02-28T11:20:47;101422.09;;;20.01;47.20
48872;BME280;36154;51.674;7.824;2024-02-28T11:23:13;101416.06;;;20.02;47.07
48872;BME280;36154;51.674;7.824;2024-02-28T11:25:41;101424.66;;;20.04;47.03
48872;BME280;36154;51.674;7.824;2024-02-28T11:28:07;101412.56;;;20.04;46.93
48872;BME280;36154;51.674;7.824;2024-02-28T11:30:33;101412.53;;;20.06;46.95
48872;BME280;36154;51.674;7.824;2024-02-28T11:32:58;101414.25;;;20.07;46.93
48872;BME280;36154;51.674;7.824;2024-02-28T11:35:27;101409.06;;;20.08;46.89
48872;BME280;36154;51.674;7.824;2024-02-28T11:37:56;101408.19;;;20.09;46.85
48872;BME280;36154;51.674;7.824;2024-02-28T11:40:23;101407.31;;;20.10;46.92
48872;BME280;36154;51.674;7.824;2024-02-28T11:42:50;101407.28;;;20.12;46.86
48872;BME280;36154;51.674;7.824;2024-02-28T11:45:15;101407.28;;;20.12;46.76
48872;BME280;36154;51.674;7.824;2024-02-28T11:47:41;101408.97;;;20.13;46.63
48872;BME280;36154;51.674;7.824;2024-02-28T11:50:07;101400.34;;;20.14;46.76
48872;BME280;36154;51.674;7.824;2024-02-28T11:52:33;101408.09;;;20.16;46.48
48872;BME280;36154;51.674;7.824;2024-02-28T11:54:59;101400.31;;;20.17;46.60
48872;BME280;36154;51.674;7.824;2024-02-28T11:57:25;101391.66;;;20.18;46.41
48872;BME280;36154;51.674;7.824;2024-02-28T11:59:51;101385.63;;;20.18;46.40
48872;BME280;36154;51.674;7.824;2024-02-28T12:02:18;101384.75;;;20.20;46.39
48872;BME280;36154;51.674;7.824;2024-02-28T12:04:44;101380.41;;;20.21;46.46
48872;BME280;36154;51.674;7.824;2024-02-28T12:07:10;101392.47;;;20.23;46.38
48872;BME280;36154;51.674;7.824;2024-02-28T12:09:36;101390.72;;;20.24;46.28
48872;BME280;36154;51.674;7.824;2024-02-28T12:12:02;101389.81;;;20.25;46.38
48872;BME280;36154;51.674;7.824;2024-02-28T12:14:31;101379.47;;;20.26;46.16
48872;BME280;36154;51.674;7.824;2024-02-28T12:16:57;101370.81;;;20.27;46.19
48872;BME280;36154;51.674;7.824;2024-02-28T12:19:23;101373.38;;;20.29;46.11
48872;BME280;36154;51.674;7.824;2024-02-28T12:21:49;101369.94;;;20.30;46.09
48872;BME280;36154;51.674;7.824;2024-02-28T12:24:14;101373.34;;;20.32;46.23
48872;BME280;36154;51.674;7.824;2024-02-28T12:26:39;101369.84;;;20.33;46.09
48872;BME280;36154;51.674;7.824;2024-02-28T12:29:05;101366.41;;;20.34;46.06
48872;BME280;36154;51.674;7.824;2024-02-28T12:31:31;101361.22;;;20.36;46.00
48872;BME280;36154;51.674;7.824;2024-02-28T12:33:56;101360.34;;;20.37;45.97
48872;BME280;36154;51.674;7.824;2024-02-28T12:36:22;101353.41;;;20.39;46.10
48872;BME280;36154;51.674;7.824;2024-02-28T12:38:47;101351.66;;;20.39;45.80
48872;BME280;36154;51.674;7.824;2024-02-28T12:41:13;101349.91;;;20.40;45.86
48872;BME280;36154;51.674;7.824;2024-02-28T12:43:39;101340.41;;;20.42;45.83